CYSJ

Saint John Airport

Saint John, , Canada
METAR CYSJ 230900Z VRB02KT 15SM FEW050 M07/M08 A3020 RMK SC2 SLP233
Observed Flight Rules
Oct-23 @ 09:00 UTC (40 minutes ago) Visual Flight Rules
Wind Visibility Clouds
Variable at 2 knots 15 miles
  • Few at 5,000' AGL
Temperatures Readings
Current -7°C / 19°F
Dewpoint -8°C / 18°F
Humidity 93%
Altimeter 30.2" Hg
Pressure 1023.3 hPa
Elevation 109
METAR CYSJ 230900Z VRB02KT 15SM FEW050 M07/M08 A3020 RMK SC2 SLP233
Observed Flight Rules
Oct-23 @ 09:00 UTC
(40 minutes ago)
VFR
Wind Visibility
Variable at 2 knots 15 miles
Clouds
  • Few at 5,000' AGL
Temperature Dewpoint
-7°C / 19°F -8°C / 18°F
Humidity Altimeter Pressure
93% 30.2" Hg 1023.3 hPa